Latest Weather Observations for Whyalla

IDS60801

Issued at 7:01 pm CST Saturday 27 May 2017 (issued every 30 minutes, with the page automatically refreshed every 10 minutes)

About weather observations | Map of weather stations | Latest weather observations for SA | Other Formats
Station Details ID: 018120 Name: WHYALLA AERO Lat: -33.05 Lon: 137.52 Height: 9.3 m
Data from the previous 72 hours. | See also: Recent months at Whyalla
Date/Time
CST
Temp
°C
App
Temp
°C
Dew
Point
°C
Rel
Hum
%
Delta-T
°C
Wind Press
QNH
hPa
Press
MSL
hPa
Rain since
9am
mm
Dir  Spd
km/h
Gust
km/h
Spd
kts
Gust
kts
27/07:00pm 16.9 12.0 11.2 69 3.1 WSW 28 41 15 22 1014.4 1014.4 0.0
27/06:30pm 18.3 14.0 9.4 56 4.7 W 22 30 12 16 1013.7 1013.7 0.0
27/06:00pm 18.7 14.7 8.9 53 5.1 W 20 30 11 16 1013.2 1013.2 0.0
27/05:30pm 19.7 14.1 8.7 49 5.8 W 28 41 15 22 1012.9 1012.9 0.0
27/05:00pm 20.5 15.7 8.8 47 6.2 W 24 33 13 18 1012.3 1012.3 0.0
27/04:30pm 22.3 16.6 6.9 37 7.9 W 26 33 14 18 1012.0 1012.0 0.0
27/04:00pm 22.1 16.1 5.1 33 8.4 W 26 41 14 22 1012.0 1012.0 0.0
27/03:30pm 23.1 16.3 5.1 31 9.0 WNW 30 37 16 20 1012.0 1012.0 0.0
27/03:00pm 22.8 16.2 4.3 30 9.1 WNW 28 41 15 22 1011.9 1011.9 0.0
27/02:30pm 23.5 16.1 4.0 28 9.6 WNW 32 39 17 21 1012.0 1012.0 0.0
27/02:00pm 23.2 17.6 5.6 32 8.9 NW 24 32 13 17 1012.2 1012.2 0.0
27/01:30pm 22.8 16.8 5.3 32 8.8 NW 26 35 14 19 1012.5 1012.5 0.0
27/01:00pm 22.4 16.0 5.4 33 8.5 NW 28 39 15 21 1012.9 1012.9 0.0
27/12:30pm 21.9 16.3 5.3 34 8.2 NW 24 33 13 18 1013.3 1013.3 0.0
27/12:00pm 21.4 14.7 5.7 36 7.8 NW 30 39 16 21 1013.8 1013.8 0.0
27/11:30am 20.7 14.5 7.7 43 6.7 NNW 30 39 16 21 1014.3 1014.3 0.0
27/11:00am 19.4 12.4 6.8 44 6.3 NW 33 43 18 23 1014.9 1014.9 0.0
27/10:30am 18.8 12.6 7.9 49 5.6 N 30 39 16 21 1015.3 1015.3 0.0
27/10:00am 18.1 12.2 7.5 50 5.4 NNW 28 35 15 19 1015.5 1015.5 0.0
27/09:30am 17.0 12.0 8.2 56 4.5 NNW 24 32 13 17 1015.6 1015.6 0.0
27/09:00am 15.4 10.2 7.4 59 4.0 NNW 24 30 13 16 1015.8 1015.8 0.0
27/08:30am 14.8 10.1 7.6 62 3.6 NNW 22 30 12 16 1015.7 1015.7 0.0
27/08:00am 14.2 9.4 7.5 64 3.3 NW 22 28 12 15 1015.8 1015.8 0.0
27/07:30am 13.3 9.1 7.3 67 2.9 NNW 19 24 10 13 1015.5 1015.5 0.0
27/07:00am 14.2 9.4 7.3 63 3.4 N 22 28 12 15 1015.1 1015.1 0.0
27/06:30am 15.1 9.9 7.2 59 3.9 N 24 32 13 17 1015.3 1015.3 0.0
27/06:00am 14.9 10.8 7.7 62 3.6 NNW 19 24 10 13 1015.2 1015.2 0.0
27/05:30am 11.6 8.2 7.5 76 2.0 NW 15 20 8 11 1015.1 1015.1 0.0
27/05:00am 12.8 8.7 7.9 72 2.4 NNW 19 24 10 13 1014.9 1014.9 0.0
27/04:30am 11.8 7.4 7.5 75 2.1 NW 20 24 11 13 1015.1 1015.1 0.0
27/04:00am 12.3 8.1 7.4 72 2.4 NNW 19 22 10 12 1014.8 1014.8 0.0
27/03:30am 12.1 8.3 7.6 74 2.2 NNW 17 20 9 11 1015.2 1015.2 0.0
27/03:00am 12.5 8.2 7.8 73 2.3 NNW 20 24 11 13 1015.6 1015.6 0.0
27/02:30am 11.0 7.3 7.9 81 1.5 NNW 17 19 9 10 1015.8 1015.8 0.0
27/02:00am 8.1 5.1 5.9 86 1.0 NW 11 15 6 8 1016.0 1016.0 0.0
27/01:30am 8.4 5.1 6.4 87 0.9 NNW 13 15 7 8 1016.4 1016.4 0.0
27/01:00am 8.3 5.7 5.9 85 1.1 NW 9 11 5 6 1016.7 1016.7 0.0
27/12:30am 9.2 6.0 7.0 86 1.0 NW 13 15 7 8 1016.8 1016.8 0.0
27/12:00am 8.5 5.9 6.0 84 1.1 NW 9 11 5 6 1016.7 1016.7 0.0
 
Date/Time
CST
Temp
°C
App
Temp
°C
Dew
Point
°C
Rel
Hum
%
Delta-T
°C
Wind Press
QNH
hPa
Press
MSL
hPa
Rain since
9am
mm
Dir  Spd
km/h
Gust
km/h
Spd
kts
Gust
kts
26/11:30pm 8.9 6.7 6.0 82 1.3 NW 7 9 4 5 1016.8 1016.8 0.0
26/11:00pm 9.5 6.9 6.0 79 1.6 NW 9 9 5 5 1017.0 1017.0 0.0
26/10:30pm 10.9 8.4 6.6 75 2.0 NNW 9 9 5 5 1017.4 1017.4 0.0
26/10:00pm 12.1 9.8 7.4 73 2.3 N 9 11 5 6 1017.6 1017.6 0.0
26/09:30pm 12.3 9.1 7.0 70 2.5 N 13 13 7 7 1017.7 1017.7 0.0
26/09:00pm 13.5 10.8 7.3 66 3.0 N 11 13 6 7 1017.7 1017.7 0.0
26/08:30pm 14.3 11.4 8.0 66 3.1 N 13 15 7 8 1017.9 1017.9 0.0
26/08:00pm 16.6 13.2 7.8 56 4.4 N 15 20 8 11 1017.8 1017.8 0.0
26/07:30pm 16.5 13.9 7.7 56 4.4 NNE 11 15 6 8 1017.7 1017.7 0.0
26/07:00pm 17.0 14.0 7.6 54 4.7 NNE 13 15 7 8 1017.7 1017.7 0.0
26/06:30pm 17.0 14.4 7.6 54 4.7 NNE 11 15 6 8 1017.7 1017.7 0.0
26/06:00pm 17.9 15.3 7.6 51 5.2 NNE 11 13 6 7 1017.6 1017.6 0.0
26/05:30pm 18.5 15.9 7.6 49 5.5 N 11 13 6 7 1017.5 1017.5 0.0
26/05:00pm 20.5 17.0 7.2 42 6.8 N 15 19 8 10 1017.2 1017.2 0.0
26/04:30pm 21.5 17.0 7.0 39 7.4 NNW 20 24 11 13 1017.4 1017.4 0.0
26/04:00pm 22.1 17.7 6.7 37 7.9 N 19 26 10 14 1017.4 1017.4 0.0
26/03:30pm 22.2 17.6 5.6 34 8.3 NNW 19 26 10 14 1017.5 1017.5 0.0
26/03:00pm 22.6 18.5 6.4 35 8.2 N 17 22 9 12 1017.7 1017.7 0.0
26/02:30pm 22.5 18.0 7.1 37 7.9 N 20 30 11 16 1017.9 1017.9 0.0
26/02:00pm 22.6 18.3 6.8 36 8.1 N 19 28 10 15 1018.1 1018.1 0.0
26/01:30pm 22.7 18.3 7.3 37 8.0 NNW 20 26 11 14 1018.6 1018.6 0.0
26/01:00pm 22.1 17.6 6.3 36 8.0 N 19 28 10 15 1019.1 1019.1 0.0
26/12:30pm 22.0 17.6 7.4 39 7.5 N 20 28 11 15 1019.9 1019.9 0.0
26/12:00pm 21.8 18.1 8.0 41 7.2 NNW 17 26 9 14 1020.4 1020.4 0.0
26/11:30am 21.3 17.6 7.9 42 6.9 NNW 17 22 9 12 1021.0 1021.0 0.0
26/11:00am 20.4 17.8 9.3 49 5.9 NNW 13 20 7 11 1021.5 1021.5 0.0
26/10:30am 19.4 16.7 9.0 51 5.4 N 13 17 7 9 1021.9 1021.9 0.0
26/10:00am 17.8 15.4 9.9 60 4.2 NNW 13 15 7 8 1022.2 1022.2 0.0
26/09:30am 15.4 13.9 10.6 73 2.5 NNW 9 13 5 7 1022.4 1022.4 0.0
26/09:00am 12.6 10.9 9.8 83 1.4 NNW 9 11 5 6 1022.6 1022.6 0.0
26/08:30am 9.8 8.1 8.2 90 0.8 NW 7 9 4 5 1022.5 1022.5 0.0
26/08:00am 7.8 5.4 7.1 95 0.3 NW 9 11 5 6 1022.2 1022.2 0.0
26/07:30am 5.7 2.9 5.1 96 0.3 NW 9 11 5 6 1022.2 1022.2 0.0
26/07:00am 5.2 2.3 4.6 96 0.3 NW 9 11 5 6 1022.0 1022.0 0.0
26/06:30am 5.7 2.5 5.1 96 0.3 NW 11 13 6 7 1021.7 1021.7 0.0
26/06:00am 5.4 2.9 4.7 95 0.3 NW 7 11 4 6 1021.6 1021.6 0.0
26/05:30am 5.9 3.5 5.2 95 0.3 NNW 7 9 4 5 1021.5 1021.5 0.0
26/05:00am 5.9 3.1 5.0 94 0.4 NW 9 11 5 6 1021.3 1021.3 0.0
26/04:30am 5.9 3.0 4.9 93 0.4 NW 9 11 5 6 1021.4 1021.4 0.0
26/04:00am 6.3 3.5 5.3 93 0.4 WNW 9 11 5 6 1021.3 1021.3 0.0
26/03:30am 6.6 3.9 5.4 92 0.5 NW 9 11 5 6 1021.4 1021.4 0.0
26/03:00am 6.8 4.1 5.6 92 0.5 WNW 9 11 5 6 1021.5 1021.5 0.0
26/02:30am 6.9 4.2 5.5 91 0.6 NW 9 9 5 5 1021.6 1021.6 0.0
26/02:00am 7.4 5.2 6.0 91 0.6 WNW 7 9 4 5 1021.7 1021.7 0.0
26/01:30am 7.7 5.5 6.3 91 0.6 WNW 7 9 4 5 1021.7 1021.7 0.0
26/01:00am 7.7 5.5 6.0 89 0.8 NW 7 11 4 6 1022.0 1022.0 0.0
26/12:30am 8.4 5.9 6.7 89 0.8 NNW 9 11 5 6 1022.1 1022.1 0.0
26/12:00am 8.3 5.8 6.4 88 0.9 NNW 9 11 5 6 1022.2 1022.2 0.0
 
Date/Time
CST
Temp
°C
App
Temp
°C
Dew
Point
°C
Rel
Hum
%
Delta-T
°C
Wind Press
QNH
hPa
Press
MSL
hPa
Rain since
9am
mm
Dir  Spd
km/h
Gust
km/h
Spd
kts
Gust
kts
25/11:30pm 8.5 6.4 6.6 88 0.9 NW 7 9 4 5 1022.5 1022.5 0.0
25/11:00pm 8.4 5.9 6.4 87 0.9 WNW 9 9 5 5 1022.4 1022.4 0.0
25/10:30pm 9.2 7.2 7.2 87 0.9 WSW 7 7 4 4 1022.5 1022.5 0.0
25/10:00pm 9.4 7.4 7.3 87 1.0 WSW 7 7 4 4 1022.4 1022.4 0.0
25/09:30pm 9.7 7.8 7.6 87 1.0 SW 7 9 4 5 1022.3 1022.3 0.0
25/09:00pm 10.5 10.1 8.1 85 1.2 CALM 0 0 0 0 1022.3 1022.3 0.0
25/08:30pm 10.9 10.2 8.5 85 1.2 SW 2 6 1 3 1022.1 1022.1 0.0
25/08:00pm 11.5 10.7 8.2 80 1.6 NE 2 6 1 3 1022.0 1022.0 0.0
25/07:30pm 12.3 10.7 8.2 76 2.0 NE 6 7 3 4 1022.0 1022.0 0.0
25/07:00pm 13.7 12.5 9.4 75 2.2 E 6 6 3 3 1021.9 1021.9 0.0
25/06:30pm 14.9 13.7 9.5 70 2.8 E 6 7 3 4 1021.7 1021.7 0.0
25/06:00pm 16.1 15.0 9.8 66 3.3 E 6 7 3 4 1021.4 1021.4 0.0
25/05:30pm 17.0 15.5 10.6 66 3.4 ENE 9 13 5 7 1021.0 1021.0 0.0
25/05:00pm 18.5 16.2 10.6 60 4.3 E 13 17 7 9 1021.0 1021.0 0.0
25/04:30pm 19.6 17.3 10.6 56 4.9 E 13 19 7 10 1020.9 1020.9 0.0
25/04:00pm 20.4 17.2 9.9 51 5.6 E 17 22 9 12 1020.6 1020.6 0.0
25/03:30pm 21.5 18.3 8.4 43 6.9 E 15 20 8 11 1020.5 1020.5 0.0
25/03:00pm 21.5 18.4 8.7 44 6.7 E 15 19 8 10 1020.5 1020.5 0.0
25/02:30pm 21.9 18.9 9.4 45 6.7 E 15 19 8 10 1020.5 1020.5 0.0
25/02:00pm 22.2 20.7 10.4 47 6.5 S 9 17 5 9 1020.8 1020.8 0.0
25/01:30pm 22.1 18.3 7.5 39 7.5 WSW 17 26 9 14 1021.3 1021.3 0.0
25/01:00pm 22.0 18.7 6.3 36 8.0 WSW 13 22 7 12 1021.7 1021.7 0.0
25/12:30pm 21.6 18.1 7.4 40 7.3 WNW 15 24 8 13 1022.2 1022.2 0.0
25/12:00pm 21.0 17.8 9.9 49 6.0 NW 17 22 9 12 1022.6 1022.6 0.0
25/11:30am 20.3 16.5 9.2 49 5.9 WNW 19 24 10 13 1022.9 1022.9 0.0
25/11:00am 19.6 16.4 10.0 54 5.1 WNW 17 22 9 12 1023.2 1023.2 0.0
25/10:30am 18.7 15.7 10.5 59 4.4 NW 17 22 9 12 1023.3 1023.3 0.0
25/10:00am 17.0 14.8 10.8 67 3.3 NW 13 19 7 10 1023.4 1023.4 0.0
25/09:30am 15.0 12.3 10.4 74 2.4 NW 15 17 8 9 1023.4 1023.4 0.0
25/09:00am 13.2 10.5 10.2 82 1.5 NW 15 19 8 10 1023.3 1023.3 0.0
25/08:30am 11.8 9.0 9.9 88 1.0 NW 15 19 8 10 1023.0 1023.0 0.0
25/08:00am 10.2 7.5 8.8 91 0.7 NW 13 24 7 13 1022.8 1022.8 0.0
25/07:30am 9.3 6.5 8.5 95 0.4 NNW 13 15 7 8 1022.5 1022.5 0.0
25/07:00am 9.3 6.5 8.4 94 0.4 NNW 13 17 7 9 1022.2 1022.2 0.0
25/06:30am 9.3 6.5 8.5 95 0.4 NNW 13 15 7 8 1022.2 1022.2 0.0
25/06:00am 9.6 6.5 8.7 94 0.4 NNW 15 17 8 9 1022.0 1022.0 0.0
25/05:30am 9.5 6.7 8.6 94 0.4 NNW 13 15 7 8 1021.7 1021.7 0.0
25/05:00am 9.8 6.7 9.0 95 0.4 NNW 15 17 8 9 1021.7 1021.7 0.0
25/04:30am 9.8 7.5 9.0 95 0.4 NNW 11 13 6 7 1021.9 1021.9 0.0
25/04:00am 9.7 7.7 8.8 94 0.4 NNW 9 13 5 7 1021.8 1021.8 0.0
25/03:30am 10.8 8.4 9.9 94 0.5 NW 13 17 7 9 1021.9 1021.9 0.0
25/03:00am 10.6 8.9 10.0 96 0.3 NNW 9 11 5 6 1021.7 1021.7 0.0
25/02:30am 9.7 8.4 9.2 97 0.2 NW 6 9 3 5 1021.9 1021.9 0.0
25/02:00am 9.2 8.2 8.7 97 0.2 NW 4 7 2 4 1022.0 1022.0 0.0
25/01:30am 8.7 7.5 8.1 96 0.3 W 4 7 2 4 1021.9 1021.9 0.0
25/01:00am 9.2 7.2 8.7 97 0.2 NW 9 11 5 6 1022.0 1022.0 0.0
25/12:30am 8.5 6.4 8.1 97 0.2 NNW 9 11 5 6 1022.0 1022.0 0.0
25/12:00am 8.3 6.1 7.7 96 0.3 NNW 9 11 5 6 1022.1 1022.1 0.0
 
Date/Time
CST
Temp
°C
App
Temp
°C
Dew
Point
°C
Rel
Hum
%
Delta-T
°C
Wind Press
QNH
hPa
Press
MSL
hPa
Rain since
9am
mm
Dir  Spd
km/h
Gust
km/h
Spd
kts
Gust
kts
24/11:30pm 8.4 6.2 7.8 96 0.3 NW 9 11 5 6 1022.4 1022.4 0.0
24/11:00pm 8.8 7.1 8.2 96 0.3 NW 7 9 4 5 1022.3 1022.3 0.0
24/10:30pm 9.4 7.8 8.8 96 0.3 NW 7 9 4 5 1022.3 1022.3 0.0
24/10:00pm 9.6 7.6 8.8 95 0.4 NW 9 11 5 6 1022.3 1022.3 0.0
24/09:30pm 10.4 8.6 9.6 95 0.4 WNW 9 9 5 5 1022.4 1022.4 0.0
24/09:00pm 10.6 8.9 9.7 94 0.5 NW 9 9 5 5 1022.6 1022.6 0.0
24/08:30pm 10.9 9.8 9.8 93 0.6 NW 6 7 3 4 1022.6 1022.6 0.0
24/08:00pm 12.1 11.2 10.8 92 0.7 SE 6 7 3 4 1022.5 1022.5 0.0
24/07:30pm 12.3 12.1 10.5 89 0.9 SE 2 7 1 4 1022.4 1022.4 0.0

Other Formats:

Comma delimited format used in spreadsheet applications
http://www.bom.gov.au/fwo/IDS60801/IDS60801.95664.axf

JavaScript Object Notation format (JSON) in row-major order
http://www.bom.gov.au/fwo/IDS60801/IDS60801.95664.json